Time,TemperatureF,DewpointF,PressureIn,WindDirection,WindDirectionDegrees,WindSpeedMPH,WindSpeedGustMPH,Humidity,HourlyPrecipIn,Conditions,Clouds,dailyrainin,SolarRadiationWatts/m^2,SoftwareType,DateUTC
2013-04-06 00:03:00,61.0,33.0,-100.00,East,94,9.0,19.0,35,0.00,,,0.00,0.000000,,2013-04-06 10:03:00,
2013-04-06 00:12:00,61.0,33.0,-100.00,East,94,9.0,19.0,35,0.00,,,0.00,0.000000,,2013-04-06 10:12:00,
2013-04-06 00:22:00,61.0,33.0,-100.00,East,94,9.0,19.0,35,0.00,,,0.00,0.000000,,2013-04-06 10:22:00,
2013-04-06 00:32:00,61.0,33.0,-100.00,East,94,9.0,19.0,35,0.00,,,0.00,0.000000,,2013-04-06 10:32:00,
2013-04-06 00:53:00,61.0,35.0,-100.00,East,98,10.0,17.0,37,0.00,,,0.00,0.000000,,2013-04-06 10:53:00,
2013-04-06 01:02:00,61.0,35.0,-100.00,East,98,10.0,17.0,37,0.00,,,0.00,0.000000,,2013-04-06 11:02:00,
2013-04-06 01:12:00,61.0,35.0,-100.00,East,98,10.0,17.0,37,0.00,,,0.00,0.000000,,2013-04-06 11:12:00,
2013-04-06 01:22:00,61.0,35.0,-100.00,East,98,10.0,17.0,37,0.00,,,0.00,0.000000,,2013-04-06 11:22:00,
2013-04-06 01:32:00,61.0,35.0,-100.00,East,98,10.0,17.0,37,0.00,,,0.00,0.000000,,2013-04-06 11:32:00,
2013-04-06 01:53:00,60.0,34.0,-100.00,East,84,10.0,18.0,37,0.00,,,0.00,0.000000,,2013-04-06 11:53:00,
2013-04-06 02:02:00,60.0,34.0,-100.00,East,84,10.0,18.0,37,0.00,,,0.00,0.000000,,2013-04-06 12:02:00,
2013-04-06 02:12:00,60.0,34.0,-100.00,East,84,10.0,18.0,37,0.00,,,0.00,0.000000,,2013-04-06 12:12:00,
2013-04-06 02:22:00,60.0,34.0,-100.00,East,84,10.0,18.0,37,0.00,,,0.00,0.000000,,2013-04-06 12:22:00,
2013-04-06 02:32:00,60.0,34.0,-100.00,East,84,10.0,18.0,37,0.00,,,0.00,0.000000,,2013-04-06 12:32:00,
2013-04-06 02:52:00,58.0,30.0,-100.00,East,92,9.0,19.0,34,0.00,,,0.00,0.000000,,2013-04-06 12:52:00,
2013-04-06 03:02:00,58.0,30.0,-100.00,East,92,9.0,19.0,34,0.00,,,0.00,0.000000,,2013-04-06 13:02:00,
2013-04-06 03:12:00,58.0,30.0,-100.00,East,92,9.0,19.0,34,0.00,,,0.00,0.000000,,2013-04-06 13:12:00,
2013-04-06 03:23:00,58.0,30.0,-100.00,East,92,9.0,19.0,34,0.00,,,0.00,0.000000,,2013-04-06 13:23:00,
2013-04-06 03:32:00,58.0,30.0,-100.00,East,92,9.0,19.0,34,0.00,,,0.00,0.000000,,2013-04-06 13:32:00,
2013-04-06 03:53:00,58.0,28.0,-100.00,East,84,11.0,20.0,32,0.00,,,0.00,0.000000,,2013-04-06 13:53:00,
2013-04-06 04:03:00,58.0,28.0,-100.00,East,84,11.0,20.0,32,0.00,,,0.00,0.000000,,2013-04-06 14:03:00,
2013-04-06 04:12:00,58.0,28.0,-100.00,East,84,11.0,20.0,32,0.00,,,0.00,0.000000,,2013-04-06 14:12:00,
2013-04-06 04:22:00,58.0,28.0,-100.00,East,84,11.0,20.0,32,0.00,,,0.00,0.000000,,2013-04-06 14:22:00,
2013-04-06 04:32:00,58.0,28.0,-100.00,East,84,11.0,20.0,32,0.00,,,0.00,0.000000,,2013-04-06 14:32:00,
2013-04-06 05:02:00,58.0,28.0,-100.00,East,86,12.0,21.0,31,0.00,,,0.00,0.000000,,2013-04-06 15:02:00,
2013-04-06 05:12:00,58.0,28.0,-100.00,East,86,12.0,21.0,31,0.00,,,0.00,0.000000,,2013-04-06 15:12:00,
2013-04-06 05:22:00,58.0,28.0,-100.00,East,86,12.0,21.0,31,0.00,,,0.00,0.000000,,2013-04-06 15:22:00,
2013-04-06 05:32:00,58.0,28.0,-100.00,East,86,12.0,21.0,31,0.00,,,0.00,0.000000,,2013-04-06 15:32:00,
2013-04-06 05:53:00,59.0,29.0,-100.00,East,92,12.0,20.0,32,0.00,,,0.00,0.000000,,2013-04-06 15:53:00,
2013-04-06 06:04:00,59.0,29.0,-100.00,East,92,12.0,20.0,32,0.00,,,0.00,0.000000,,2013-04-06 16:04:00,
2013-04-06 06:17:00,59.0,29.0,-100.00,East,92,12.0,20.0,32,0.00,,,0.00,0.000000,,2013-04-06 16:17:00,
2013-04-06 06:22:00,59.0,29.0,-100.00,East,92,12.0,20.0,32,0.00,,,0.00,0.000000,,2013-04-06 16:22:00,
2013-04-06 06:32:00,59.0,29.0,-100.00,East,92,12.0,20.0,32,0.00,,,0.00,0.000000,,2013-04-06 16:32:00,
2013-04-06 06:53:00,57.0,27.0,-100.00,East,89,11.0,20.0,32,0.00,,,0.00,0.000000,,2013-04-06 16:53:00,
2013-04-06 07:02:00,57.0,27.0,-100.00,East,89,11.0,20.0,32,0.00,,,0.00,0.000000,,2013-04-06 17:02:00,
2013-04-06 07:12:00,57.0,27.0,-100.00,East,89,11.0,20.0,32,0.00,,,0.00,0.000000,,2013-04-06 17:12:00,
2013-04-06 07:22:00,57.0,27.0,-100.00,East,89,11.0,20.0,32,0.00,,,0.00,0.000000,,2013-04-06 17:22:00,
2013-04-06 07:32:00,57.0,27.0,-100.00,East,89,11.0,20.0,32,0.00,,,0.00,0.000000,,2013-04-06 17:32:00,
2013-04-06 07:52:00,64.0,31.0,-100.00,East,94,11.0,19.0,29,0.00,,,0.00,25.000000,,2013-04-06 17:52:00,
2013-04-06 08:02:00,64.0,31.0,-100.00,East,94,11.0,19.0,29,0.00,,,0.00,25.000000,,2013-04-06 18:02:00,
2013-04-06 08:12:00,64.0,31.0,-100.00,East,94,11.0,19.0,29,0.00,,,0.00,25.000000,,2013-04-06 18:12:00,
2013-04-06 08:22:00,64.0,31.0,-100.00,East,94,11.0,19.0,29,0.00,,,0.00,25.000000,,2013-04-06 18:22:00,
2013-04-06 08:32:00,64.0,31.0,-100.00,East,94,11.0,19.0,29,0.00,,,0.00,25.000000,,2013-04-06 18:32:00,
2013-04-06 08:52:00,66.0,33.0,-100.00,East,98,14.0,24.0,29,0.00,,,0.00,357.000000,,2013-04-06 18:52:00,
2013-04-06 09:02:00,66.0,33.0,-100.00,East,98,14.0,24.0,29,0.00,,,0.00,357.000000,,2013-04-06 19:02:00,
2013-04-06 09:12:00,66.0,33.0,-100.00,East,98,14.0,24.0,29,0.00,,,0.00,357.000000,,2013-04-06 19:12:00,
2013-04-06 09:22:00,66.0,33.0,-100.00,East,98,14.0,24.0,29,0.00,,,0.00,357.000000,,2013-04-06 19:22:00,
2013-04-06 09:32:00,66.0,33.0,-100.00,East,98,14.0,24.0,29,0.00,,,0.00,357.000000,,2013-04-06 19:32:00,
2013-04-06 09:53:00,70.0,34.0,-100.00,ESE,107,14.0,23.0,27,0.00,,,0.00,722.000000,,2013-04-06 19:53:00,
2013-04-06 10:02:00,70.0,34.0,-100.00,ESE,107,14.0,23.0,27,0.00,,,0.00,722.000000,,2013-04-06 20:02:00,
2013-04-06 10:12:00,70.0,34.0,-100.00,ESE,107,14.0,23.0,27,0.00,,,0.00,722.000000,,2013-04-06 20:12:00,
2013-04-06 10:22:00,70.0,34.0,-100.00,ESE,107,14.0,23.0,27,0.00,,,0.00,722.000000,,2013-04-06 20:22:00,
2013-04-06 10:32:00,70.0,34.0,-100.00,ESE,107,14.0,23.0,27,0.00,,,0.00,722.000000,,2013-04-06 20:32:00,
2013-04-06 10:33:00,71.0,40.0,-100.00,ESE,116,13.0,24.0,32,0.00,,,0.00,995.000000,,2013-04-06 20:33:00,
2013-04-06 10:52:00,71.0,40.0,-100.00,ESE,116,13.0,24.0,32,0.00,,,0.00,995.000000,,2013-04-06 20:52:00,
2013-04-06 11:02:00,71.0,40.0,-100.00,ESE,116,13.0,24.0,32,0.00,,,0.00,995.000000,,2013-04-06 21:02:00,
2013-04-06 11:13:00,71.0,40.0,-100.00,ESE,116,13.0,24.0,32,0.00,,,0.00,995.000000,,2013-04-06 21:13:00,
2013-04-06 11:22:00,71.0,40.0,-100.00,ESE,116,13.0,24.0,32,0.00,,,0.00,995.000000,,2013-04-06 21:22:00,
2013-04-06 11:33:00,72.0,38.0,-100.00,SE,138,13.0,23.0,29,0.00,,,0.00,1204.000000,,2013-04-06 21:33:00,
2013-04-06 11:53:00,72.0,38.0,-100.00,SE,138,13.0,23.0,29,0.00,,,0.00,1204.000000,,2013-04-06 21:53:00,
2013-04-06 12:02:00,72.0,38.0,-100.00,SE,138,13.0,23.0,29,0.00,,,0.00,1204.000000,,2013-04-06 22:02:00,
2013-04-06 12:13:00,72.0,38.0,-100.00,SE,138,13.0,23.0,29,0.00,,,0.00,1204.000000,,2013-04-06 22:13:00,
2013-04-06 12:22:00,72.0,38.0,-100.00,SE,138,13.0,23.0,29,0.00,,,0.00,1204.000000,,2013-04-06 22:22:00,
2013-04-06 12:33:00,73.0,39.0,-100.00,SSE,148,13.0,24.0,29,0.00,,,0.00,1332.000000,,2013-04-06 22:33:00,
2013-04-06 12:53:00,73.0,39.0,-100.00,SSE,148,13.0,24.0,29,0.00,,,0.00,1332.000000,,2013-04-06 22:53:00,
2013-04-06 13:03:00,73.0,39.0,-100.00,SSE,148,13.0,24.0,29,0.00,,,0.00,1332.000000,,2013-04-06 23:03:00,
2013-04-06 13:13:00,73.0,39.0,-100.00,SSE,148,13.0,24.0,29,0.00,,,0.00,1332.000000,,2013-04-06 23:13:00,
2013-04-06 13:22:00,73.0,39.0,-100.00,SSE,148,13.0,24.0,29,0.00,,,0.00,1332.000000,,2013-04-06 23:22:00,
2013-04-06 13:53:00,68.0,53.0,-100.00,SW,227,7.0,23.0,59,0.00,,,0.00,1379.000000,,2013-04-06 23:53:00,
2013-04-06 14:02:00,68.0,53.0,-100.00,SW,227,7.0,23.0,59,0.00,,,0.00,1379.000000,,2013-04-07 00:02:00,
2013-04-06 14:12:00,68.0,53.0,-100.00,SW,227,7.0,23.0,59,0.00,,,0.00,1379.000000,,2013-04-07 00:12:00,
2013-04-06 14:22:00,68.0,53.0,-100.00,SW,227,7.0,23.0,59,0.00,,,0.00,1379.000000,,2013-04-07 00:22:00,
2013-04-06 14:32:00,68.0,53.0,-100.00,SW,227,7.0,23.0,59,0.00,,,0.00,1379.000000,,2013-04-07 00:32:00,
2013-04-06 14:53:00,68.0,53.0,-100.00,SSW,205,7.0,18.0,59,0.00,,,0.00,1133.000000,,2013-04-07 00:53:00,
2013-04-06 15:02:00,68.0,53.0,-100.00,SSW,205,7.0,18.0,59,0.00,,,0.00,1133.000000,,2013-04-07 01:02:00,
2013-04-06 15:12:00,68.0,53.0,-100.00,SSW,205,7.0,18.0,59,0.00,,,0.00,1133.000000,,2013-04-07 01:12:00,
2013-04-06 15:22:00,68.0,53.0,-100.00,SSW,205,7.0,18.0,59,0.00,,,0.00,1133.000000,,2013-04-07 01:22:00,
2013-04-06 15:32:00,68.0,53.0,-100.00,SSW,205,7.0,18.0,59,0.00,,,0.00,1133.000000,,2013-04-07 01:32:00,
2013-04-06 15:53:00,73.0,38.0,-100.00,SSE,158,13.0,24.0,28,0.00,,,0.00,1149.000000,,2013-04-07 01:53:00,
2013-04-06 16:02:00,73.0,38.0,-100.00,SSE,158,13.0,24.0,28,0.00,,,0.00,1149.000000,,2013-04-07 02:02:00,
2013-04-06 16:12:00,73.0,38.0,-100.00,SSE,158,13.0,24.0,28,0.00,,,0.00,1149.000000,,2013-04-07 02:12:00,
2013-04-06 16:22:00,73.0,38.0,-100.00,SSE,158,13.0,24.0,28,0.00,,,0.00,1149.000000,,2013-04-07 02:22:00,
2013-04-06 16:32:00,73.0,38.0,-100.00,SSE,158,13.0,24.0,28,0.00,,,0.00,1149.000000,,2013-04-07 02:32:00,
2013-04-06 16:33:00,71.0,42.0,-100.00,SSW,195,9.0,24.0,35,0.00,,,0.00,973.000000,,2013-04-07 02:33:00,
2013-04-06 16:52:00,71.0,42.0,-100.00,SSW,195,9.0,24.0,35,0.00,,,0.00,973.000000,,2013-04-07 02:52:00,
2013-04-06 17:02:00,71.0,42.0,-100.00,SSW,195,9.0,24.0,35,0.00,,,0.00,973.000000,,2013-04-07 03:02:00,
2013-04-06 17:12:00,71.0,42.0,-100.00,SSW,195,9.0,24.0,35,0.00,,,0.00,973.000000,,2013-04-07 03:12:00,
2013-04-06 17:22:00,71.0,42.0,-100.00,SSW,195,9.0,24.0,35,0.00,,,0.00,973.000000,,2013-04-07 03:22:00,
2013-04-06 17:54:00,70.0,34.0,-100.00,SE,142,11.0,24.0,27,0.00,,,0.00,670.000000,,2013-04-07 03:54:00,
2013-04-06 18:03:00,70.0,34.0,-100.00,SE,142,11.0,24.0,27,0.00,,,0.00,670.000000,,2013-04-07 04:03:00,
2013-04-06 18:13:00,70.0,34.0,-100.00,SE,142,11.0,24.0,27,0.00,,,0.00,670.000000,,2013-04-07 04:13:00,
2013-04-06 18:23:00,70.0,34.0,-100.00,SE,142,11.0,24.0,27,0.00,,,0.00,670.000000,,2013-04-07 04:23:00,
2013-04-06 18:32:00,70.0,34.0,-100.00,SE,142,11.0,24.0,27,0.00,,,0.00,670.000000,,2013-04-07 04:32:00,
2013-04-06 18:53:00,65.0,33.0,-100.00,SE,125,8.0,19.0,30,0.00,,,0.00,62.000000,,2013-04-07 04:53:00,
2013-04-06 19:02:00,65.0,33.0,-100.00,SE,125,8.0,19.0,30,0.00,,,0.00,62.000000,,2013-04-07 05:02:00,
2013-04-06 19:12:00,65.0,33.0,-100.00,SE,125,8.0,19.0,30,0.00,,,0.00,62.000000,,2013-04-07 05:12:00,
2013-04-06 19:22:00,65.0,33.0,-100.00,SE,125,8.0,19.0,30,0.00,,,0.00,62.000000,,2013-04-07 05:22:00,
2013-04-06 19:32:00,65.0,33.0,-100.00,SE,125,8.0,19.0,30,0.00,,,0.00,62.000000,,2013-04-07 05:32:00,
2013-04-06 20:02:00,61.0,32.0,-100.00,East,96,7.0,16.0,33,0.00,,,0.00,17.000000,,2013-04-07 06:02:00,
2013-04-06 20:12:00,61.0,32.0,-100.00,East,96,7.0,16.0,33,0.00,,,0.00,17.000000,,2013-04-07 06:12:00,
2013-04-06 20:22:00,61.0,32.0,-100.00,East,96,7.0,16.0,33,0.00,,,0.00,17.000000,,2013-04-07 06:22:00,
2013-04-06 20:32:00,61.0,32.0,-100.00,East,96,7.0,16.0,33,0.00,,,0.00,17.000000,,2013-04-07 06:32:00,
2013-04-06 20:52:00,61.0,32.0,-100.00,East,93,8.0,16.0,33,0.00,,,0.00,0.000000,,2013-04-07 06:52:00,
2013-04-06 21:02:00,61.0,32.0,-100.00,East,93,8.0,16.0,33,0.00,,,0.00,0.000000,,2013-04-07 07:02:00,
2013-04-06 21:12:00,61.0,32.0,-100.00,East,93,8.0,16.0,33,0.00,,,0.00,0.000000,,2013-04-07 07:12:00,
2013-04-06 21:22:00,61.0,32.0,-100.00,East,93,8.0,16.0,33,0.00,,,0.00,0.000000,,2013-04-07 07:22:00,
2013-04-06 21:32:00,61.0,32.0,-100.00,East,93,8.0,16.0,33,0.00,,,0.00,0.000000,,2013-04-07 07:32:00,
2013-04-06 21:52:00,60.0,32.0,-100.00,East,83,6.0,13.0,35,0.00,,,0.00,0.000000,,2013-04-07 07:52:00,
2013-04-06 22:02:00,60.0,32.0,-100.00,East,83,6.0,13.0,35,0.00,,,0.00,0.000000,,2013-04-07 08:02:00,
2013-04-06 22:12:00,60.0,32.0,-100.00,East,83,6.0,13.0,35,0.00,,,0.00,0.000000,,2013-04-07 08:12:00,
2013-04-06 22:22:00,60.0,32.0,-100.00,East,83,6.0,13.0,35,0.00,,,0.00,0.000000,,2013-04-07 08:22:00,
2013-04-06 22:32:00,60.0,32.0,-100.00,East,83,6.0,13.0,35,0.00,,,0.00,0.000000,,2013-04-07 08:32:00,
2013-04-06 22:33:00,59.0,32.0,-100.00,ENE,70,8.0,11.0,36,0.00,,,0.00,0.000000,,2013-04-07 08:33:00,
2013-04-06 22:53:00,59.0,32.0,-100.00,ENE,70,8.0,11.0,36,0.00,,,0.00,0.000000,,2013-04-07 08:53:00,
2013-04-06 23:02:00,59.0,32.0,-100.00,ENE,70,8.0,11.0,36,0.00,,,0.00,0.000000,,2013-04-07 09:02:00,
2013-04-06 23:12:00,59.0,32.0,-100.00,ENE,70,8.0,11.0,36,0.00,,,0.00,0.000000,,2013-04-07 09:12:00,
2013-04-06 23:22:00,59.0,32.0,-100.00,ENE,70,8.0,11.0,36,0.00,,,0.00,0.000000,,2013-04-07 09:22:00,
2013-04-06 23:53:00,58.0,32.0,-100.00,ENE,59,6.0,12.0,37,0.00,,,0.00,0.000000,,2013-04-07 09:53:00,